sensor_id;sensor_type;location;lat;lon;timestamp;temperature;humidity
35894;DHT22;21994;48.204;16.516;2023-09-07T00:02:16;13.30;99.90
35894;DHT22;21994;48.204;16.516;2023-09-07T00:04:42;13.30;99.90
35894;DHT22;21994;48.204;16.516;2023-09-07T00:07:08;13.20;99.90
35894;DHT22;21994;48.204;16.516;2023-09-07T00:09:34;13.20;99.90
35894;DHT22;21994;48.204;16.516;2023-09-07T00:12:00;13.20;99.90
35894;DHT22;21994;48.204;16.516;2023-09-07T00:14:26;13.20;99.90
35894;DHT22;21994;48.204;16.516;2023-09-07T00:16:51;13.10;99.90
35894;DHT22;21994;48.204;16.516;2023-09-07T00:19:17;13.10;99.90
35894;DHT22;21994;48.204;16.516;2023-09-07T00:21:43;13.10;99.90
35894;DHT22;21994;48.204;16.516;2023-09-07T00:24:09;13.10;99.90
35894;DHT22;21994;48.204;16.516;2023-09-07T00:26:35;13.10;99.90
35894;DHT22;21994;48.204;16.516;2023-09-07T00:29:01;13.10;99.90
35894;DHT22;21994;48.204;16.516;2023-09-07T00:31:27;13.00;99.90
35894;DHT22;21994;48.204;16.516;2023-09-07T00:33:53;13.00;99.90
35894;DHT22;21994;48.204;16.516;2023-09-07T00:36:19;13.00;99.90
35894;DHT22;21994;48.204;16.516;2023-09-07T00:38:45;13.00;99.90
35894;DHT22;21994;48.204;16.516;2023-09-07T00:41:11;12.90;99.90
35894;DHT22;21994;48.204;16.516;2023-09-07T00:43:38;12.90;99.90
35894;DHT22;21994;48.204;16.516;2023-09-07T00:46:06;12.80;99.90
35894;DHT22;21994;48.204;16.516;2023-09-07T00:48:32;12.80;99.90
35894;DHT22;21994;48.204;16.516;2023-09-07T00:50:59;12.80;99.90
35894;DHT22;21994;48.204;16.516;2023-09-07T00:53:25;12.80;99.90
35894;DHT22;21994;48.204;16.516;2023-09-07T00:55:54;12.70;99.90
35894;DHT22;21994;48.204;16.516;2023-09-07T00:58:20;12.70;99.90
35894;DHT22;21994;48.204;16.516;2023-09-07T01:00:47;12.70;99.90
35894;DHT22;21994;48.204;16.516;2023-09-07T01:03:13;12.60;99.90
35894;DHT22;21994;48.204;16.516;2023-09-07T01:05:41;12.60;99.90
35894;DHT22;21994;48.204;16.516;2023-09-07T01:08:23;12.60;99.90
35894;DHT22;21994;48.204;16.516;2023-09-07T01:10:50;12.50;99.90
35894;DHT22;21994;48.204;16.516;2023-09-07T01:13:17;12.50;99.90
35894;DHT22;21994;48.204;16.516;2023-09-07T01:15:44;12.50;99.90
35894;DHT22;21994;48.204;16.516;2023-09-07T01:18:10;12.50;99.90
35894;DHT22;21994;48.204;16.516;2023-09-07T01:20:36;12.40;99.90
35894;DHT22;21994;48.204;16.516;2023-09-07T01:23:02;12.40;99.90
35894;DHT22;21994;48.204;16.516;2023-09-07T01:25:28;12.40;99.90
35894;DHT22;21994;48.204;16.516;2023-09-07T01:27:55;12.40;99.90
35894;DHT22;21994;48.204;16.516;2023-09-07T01:30:21;12.40;99.90
35894;DHT22;21994;48.204;16.516;2023-09-07T01:32:47;12.40;99.90
35894;DHT22;21994;48.204;16.516;2023-09-07T01:35:14;12.30;99.90
35894;DHT22;21994;48.204;16.516;2023-09-07T01:37:42;12.40;99.90
35894;DHT22;21994;48.204;16.516;2023-09-07T01:40:08;12.50;99.90
35894;DHT22;21994;48.204;16.516;2023-09-07T01:42:34;12.40;99.90
35894;DHT22;21994;48.204;16.516;2023-09-07T01:45:00;12.40;99.90
35894;DHT22;21994;48.204;16.516;2023-09-07T01:47:26;12.40;99.90
35894;DHT22;21994;48.204;16.516;2023-09-07T01:49:51;12.30;99.90
35894;DHT22;21994;48.204;16.516;2023-09-07T01:52:17;12.30;99.90
35894;DHT22;21994;48.204;16.516;2023-09-07T01:54:43;12.30;99.90
35894;DHT22;21994;48.204;16.516;2023-09-07T01:57:09;12.30;99.90
35894;DHT22;21994;48.204;16.516;2023-09-07T01:59:35;12.20;99.90
35894;DHT22;21994;48.204;16.516;2023-09-07T02:02:00;12.20;99.90
35894;DHT22;21994;48.204;16.516;2023-09-07T02:04:26;12.10;99.90
35894;DHT22;21994;48.204;16.516;2023-09-07T02:06:52;12.10;99.90
35894;DHT22;21994;48.204;16.516;2023-09-07T02:09:17;12.10;99.90
35894;DHT22;21994;48.204;16.516;2023-09-07T02:11:43;12.10;99.90
35894;DHT22;21994;48.204;16.516;2023-09-07T02:14:09;12.10;99.90
35894;DHT22;21994;48.204;16.516;2023-09-07T02:16:36;12.00;99.90
35894;DHT22;21994;48.204;16.516;2023-09-07T02:19:02;12.00;99.90
35894;DHT22;21994;48.204;16.516;2023-09-07T02:21:29;12.00;99.90
35894;DHT22;21994;48.204;16.516;2023-09-07T02:23:55;12.00;99.90
35894;DHT22;21994;48.204;16.516;2023-09-07T02:26:21;12.00;99.90
35894;DHT22;21994;48.204;16.516;2023-09-07T02:28:46;11.90;99.90
35894;DHT22;21994;48.204;16.516;2023-09-07T02:31:12;11.90;99.90
35894;DHT22;21994;48.204;16.516;2023-09-07T02:33:38;11.90;99.90
35894;DHT22;21994;48.204;16.516;2023-09-07T02:36:04;11.90;99.90
35894;DHT22;21994;48.204;16.516;2023-09-07T02:38:29;11.80;99.90
35894;DHT22;21994;48.204;16.516;2023-09-07T02:40:55;11.80;99.90
35894;DHT22;21994;48.204;16.516;2023-09-07T02:43:21;11.80;99.90
35894;DHT22;21994;48.204;16.516;2023-09-07T02:45:48;11.70;99.90
35894;DHT22;21994;48.204;16.516;2023-09-07T02:48:15;11.70;99.90
35894;DHT22;21994;48.204;16.516;2023-09-07T02:50:41;11.70;99.90
35894;DHT22;21994;48.204;16.516;2023-09-07T02:53:08;11.70;99.90
35894;DHT22;21994;48.204;16.516;2023-09-07T02:55:33;11.70;99.90
35894;DHT22;21994;48.204;16.516;2023-09-07T02:58:09;11.70;99.90
35894;DHT22;21994;48.204;16.516;2023-09-07T03:00:35;11.60;99.90
35894;DHT22;21994;48.204;16.516;2023-09-07T03:03:01;11.60;99.90
35894;DHT22;21994;48.204;16.516;2023-09-07T03:05:27;11.60;99.90
35894;DHT22;21994;48.204;16.516;2023-09-07T03:07:53;11.60;99.90
35894;DHT22;21994;48.204;16.516;2023-09-07T03:10:19;11.60;99.90
35894;DHT22;21994;48.204;16.516;2023-09-07T03:12:45;11.60;99.90
35894;DHT22;21994;48.204;16.516;2023-09-07T03:15:10;11.50;99.90
35894;DHT22;21994;48.204;16.516;2023-09-07T03:17:37;11.50;99.90
35894;DHT22;21994;48.204;16.516;2023-09-07T03:20:03;11.50;99.90
35894;DHT22;21994;48.204;16.516;2023-09-07T03:22:42;11.40;99.90
35894;DHT22;21994;48.204;16.516;2023-09-07T03:25:08;11.40;99.90
35894;DHT22;21994;48.204;16.516;2023-09-07T03:27:35;11.40;99.90
35894;DHT22;21994;48.204;16.516;2023-09-07T03:30:04;11.40;99.90
35894;DHT22;21994;48.204;16.516;2023-09-07T03:32:34;11.40;99.90
35894;DHT22;21994;48.204;16.516;2023-09-07T03:35:00;11.30;99.90
35894;DHT22;21994;48.204;16.516;2023-09-07T03:37:32;11.30;99.90
35894;DHT22;21994;48.204;16.516;2023-09-07T03:39:58;11.30;99.90
35894;DHT22;21994;48.204;16.516;2023-09-07T03:42:23;11.30;99.90
35894;DHT22;21994;48.204;16.516;2023-09-07T03:44:49;11.30;99.90
35894;DHT22;21994;48.204;16.516;2023-09-07T03:47:15;11.20;99.90
35894;DHT22;21994;48.204;16.516;2023-09-07T03:49:41;11.30;99.90
35894;DHT22;21994;48.204;16.516;2023-09-07T03:52:07;11.20;99.90
35894;DHT22;21994;48.204;16.516;2023-09-07T03:54:33;11.20;99.90
35894;DHT22;21994;48.204;16.516;2023-09-07T03:56:58;11.20;99.90
35894;DHT22;21994;48.204;16.516;2023-09-07T03:59:24;11.20;99.90
35894;DHT22;21994;48.204;16.516;2023-09-07T04:01:53;11.20;99.90
35894;DHT22;21994;48.204;16.516;2023-09-07T04:04:29;11.20;99.90
35894;DHT22;21994;48.204;16.516;2023-09-07T04:06:55;11.10;99.90
35894;DHT22;21994;48.204;16.516;2023-09-07T04:09:21;11.10;99.90
35894;DHT22;21994;48.204;16.516;2023-09-07T04:11:46;11.10;99.90
35894;DHT22;21994;48.204;16.516;2023-09-07T04:14:12;11.10;99.90
35894;DHT22;21994;48.204;16.516;2023-09-07T04:16:38;11.00;99.90
35894;DHT22;21994;48.204;16.516;2023-09-07T04:19:04;11.10;99.90
35894;DHT22;21994;48.204;16.516;2023-09-07T04:21:29;11.00;99.90
35894;DHT22;21994;48.204;16.516;2023-09-07T04:23:55;11.00;99.90
35894;DHT22;21994;48.204;16.516;2023-09-07T04:26:21;11.00;99.90
35894;DHT22;21994;48.204;16.516;2023-09-07T04:28:47;11.00;99.90
35894;DHT22;21994;48.204;16.516;2023-09-07T04:31:12;11.00;99.90
35894;DHT22;21994;48.204;16.516;2023-09-07T04:33:38;11.00;99.90
35894;DHT22;21994;48.204;16.516;2023-09-07T04:36:11;11.00;99.90
35894;DHT22;21994;48.204;16.516;2023-09-07T04:38:39;11.00;99.90
35894;DHT22;21994;48.204;16.516;2023-09-07T04:41:09;11.00;99.90
35894;DHT22;21994;48.204;16.516;2023-09-07T04:43:35;11.00;99.90
35894;DHT22;21994;48.204;16.516;2023-09-07T04:46:01;11.10;99.90
35894;DHT22;21994;48.204;16.516;2023-09-07T04:48:28;11.10;99.90
35894;DHT22;21994;48.204;16.516;2023-09-07T04:50:57;11.10;99.90
35894;DHT22;21994;48.204;16.516;2023-09-07T04:53:27;11.10;99.90
35894;DHT22;21994;48.204;16.516;2023-09-07T04:55:54;11.10;99.90
35894;DHT22;21994;48.204;16.516;2023-09-07T04:58:19;11.20;99.90
35894;DHT22;21994;48.204;16.516;2023-09-07T05:00:45;11.20;99.90
35894;DHT22;21994;48.204;16.516;2023-09-07T05:03:11;11.20;99.90
35894;DHT22;21994;48.204;16.516;2023-09-07T05:05:38;11.30;99.90
35894;DHT22;21994;48.204;16.516;2023-09-07T05:08:04;11.30;99.90
35894;DHT22;21994;48.204;16.516;2023-09-07T05:10:34;11.40;99.90
35894;DHT22;21994;48.204;16.516;2023-09-07T05:13:00;11.50;99.90
35894;DHT22;21994;48.204;16.516;2023-09-07T05:15:26;11.60;99.90
35894;DHT22;21994;48.204;16.516;2023-09-07T05:17:52;11.70;99.90
35894;DHT22;21994;48.204;16.516;2023-09-07T05:20:18;11.70;99.90
35894;DHT22;21994;48.204;16.516;2023-09-07T05:22:44;11.80;99.90
35894;DHT22;21994;48.204;16.516;2023-09-07T05:25:10;11.90;99.90
35894;DHT22;21994;48.204;16.516;2023-09-07T05:27:35;11.90;99.90
35894;DHT22;21994;48.204;16.516;2023-09-07T05:30:05;12.00;99.90
35894;DHT22;21994;48.204;16.516;2023-09-07T05:32:31;12.10;99.90
35894;DHT22;21994;48.204;16.516;2023-09-07T05:34:57;12.10;99.90
35894;DHT22;21994;48.204;16.516;2023-09-07T05:37:23;12.20;99.90
35894;DHT22;21994;48.204;16.516;2023-09-07T05:39:49;12.20;99.90
35894;DHT22;21994;48.204;16.516;2023-09-07T05:42:15;12.30;99.90
35894;DHT22;21994;48.204;16.516;2023-09-07T05:44:41;12.40;99.90
35894;DHT22;21994;48.204;16.516;2023-09-07T05:47:07;12.40;99.90
35894;DHT22;21994;48.204;16.516;2023-09-07T05:49:32;12.50;99.90
35894;DHT22;21994;48.204;16.516;2023-09-07T05:51:58;12.60;99.90
35894;DHT22;21994;48.204;16.516;2023-09-07T05:54:24;12.80;99.90
35894;DHT22;21994;48.204;16.516;2023-09-07T05:56:50;12.90;99.90
35894;DHT22;21994;48.204;16.516;2023-09-07T05:59:16;13.00;99.90
35894;DHT22;21994;48.204;16.516;2023-09-07T06:01:41;13.10;99.90
35894;DHT22;21994;48.204;16.516;2023-09-07T06:04:07;13.30;99.90
35894;DHT22;21994;48.204;16.516;2023-09-07T06:06:43;13.50;99.90
35894;DHT22;21994;48.204;16.516;2023-09-07T06:09:08;13.70;99.90
35894;DHT22;21994;48.204;16.516;2023-09-07T06:11:34;13.80;99.90
35894;DHT22;21994;48.204;16.516;2023-09-07T06:14:00;13.90;99.90
35894;DHT22;21994;48.204;16.516;2023-09-07T06:16:26;14.00;99.90
35894;DHT22;21994;48.204;16.516;2023-09-07T06:18:51;14.10;99.90
35894;DHT22;21994;48.204;16.516;2023-09-07T06:21:17;14.20;99.90
35894;DHT22;21994;48.204;16.516;2023-09-07T06:23:43;14.30;99.90
35894;DHT22;21994;48.204;16.516;2023-09-07T06:26:09;14.30;99.90
35894;DHT22;21994;48.204;16.516;2023-09-07T06:28:35;14.50;99.90
35894;DHT22;21994;48.204;16.516;2023-09-07T06:31:00;14.60;99.90
35894;DHT22;21994;48.204;16.516;2023-09-07T06:33:26;14.70;99.90
35894;DHT22;21994;48.204;16.516;2023-09-07T06:35:52;14.80;99.90
35894;DHT22;21994;48.204;16.516;2023-09-07T06:38:18;15.10;99.90
35894;DHT22;21994;48.204;16.516;2023-09-07T06:40:47;15.30;99.90
35894;DHT22;21994;48.204;16.516;2023-09-07T06:43:14;15.40;99.90
35894;DHT22;21994;48.204;16.516;2023-09-07T06:45:40;15.40;99.90
35894;DHT22;21994;48.204;16.516;2023-09-07T06:48:05;15.50;99.90
35894;DHT22;21994;48.204;16.516;2023-09-07T06:50:34;15.60;99.90
35894;DHT22;21994;48.204;16.516;2023-09-07T06:53:00;15.70;99.90
35894;DHT22;21994;48.204;16.516;2023-09-07T06:55:26;15.70;99.90
35894;DHT22;21994;48.204;16.516;2023-09-07T06:57:53;15.80;99.90
35894;DHT22;21994;48.204;16.516;2023-09-07T07:00:19;15.80;99.90
35894;DHT22;21994;48.204;16.516;2023-09-07T07:02:45;15.90;99.90
35894;DHT22;21994;48.204;16.516;2023-09-07T07:05:11;16.20;99.90
35894;DHT22;21994;48.204;16.516;2023-09-07T07:07:37;16.30;99.90
35894;DHT22;21994;48.204;16.516;2023-09-07T07:10:03;16.60;99.90
35894;DHT22;21994;48.204;16.516;2023-09-07T07:12:30;16.60;99.90
35894;DHT22;21994;48.204;16.516;2023-09-07T07:15:00;16.80;99.90
35894;DHT22;21994;48.204;16.516;2023-09-07T07:17:27;16.90;99.90
35894;DHT22;21994;48.204;16.516;2023-09-07T07:19:53;17.10;99.90
35894;DHT22;21994;48.204;16.516;2023-09-07T07:22:18;17.40;99.90
35894;DHT22;21994;48.204;16.516;2023-09-07T07:24:45;17.70;99.90
35894;DHT22;21994;48.204;16.516;2023-09-07T07:27:12;18.00;99.90
35894;DHT22;21994;48.204;16.516;2023-09-07T07:29:37;18.30;99.90
35894;DHT22;21994;48.204;16.516;2023-09-07T07:32:04;18.40;99.90
35894;DHT22;21994;48.204;16.516;2023-09-07T07:34:30;18.60;99.90
35894;DHT22;21994;48.204;16.516;2023-09-07T07:36:56;18.70;99.90
35894;DHT22;21994;48.204;16.516;2023-09-07T07:39:21;19.00;99.90
35894;DHT22;21994;48.204;16.516;2023-09-07T07:41:47;19.40;99.90
35894;DHT22;21994;48.204;16.516;2023-09-07T07:44:13;19.90;99.90
35894;DHT22;21994;48.204;16.516;2023-09-07T07:46:39;20.40;99.90
35894;DHT22;21994;48.204;16.516;2023-09-07T07:49:04;20.80;99.90
35894;DHT22;21994;48.204;16.516;2023-09-07T07:51:30;21.30;99.90
35894;DHT22;21994;48.204;16.516;2023-09-07T07:53:56;21.60;99.90
35894;DHT22;21994;48.204;16.516;2023-09-07T07:56:22;21.80;99.90
35894;DHT22;21994;48.204;16.516;2023-09-07T07:58:49;22.10;99.90
35894;DHT22;21994;48.204;16.516;2023-09-07T08:01:19;22.30;99.90
35894;DHT22;21994;48.204;16.516;2023-09-07T08:03:48;22.50;99.90
35894;DHT22;21994;48.204;16.516;2023-09-07T08:06:14;22.90;99.90
35894;DHT22;21994;48.204;16.516;2023-09-07T08:08:40;23.30;99.90
35894;DHT22;21994;48.204;16.516;2023-09-07T08:11:06;23.90;99.90
35894;DHT22;21994;48.204;16.516;2023-09-07T08:13:32;24.20;99.90
35894;DHT22;21994;48.204;16.516;2023-09-07T08:16:02;24.60;98.50
35894;DHT22;21994;48.204;16.516;2023-09-07T08:18:28;24.80;98.40
35894;DHT22;21994;48.204;16.516;2023-09-07T08:20:55;24.70;99.00
35894;DHT22;21994;48.204;16.516;2023-09-07T08:23:21;25.00;98.90
35894;DHT22;21994;48.204;16.516;2023-09-07T08:25:48;25.20;98.10
35894;DHT22;21994;48.204;16.516;2023-09-07T08:28:16;25.20;98.30
35894;DHT22;21994;48.204;16.516;2023-09-07T08:30:43;25.00;98.30
35894;DHT22;21994;48.204;16.516;2023-09-07T08:33:10;25.10;98.10
35894;DHT22;21994;48.204;16.516;2023-09-07T08:35:36;25.30;97.70
35894;DHT22;21994;48.204;16.516;2023-09-07T08:38:12;25.90;98.00
35894;DHT22;21994;48.204;16.516;2023-09-07T08:40:38;26.20;96.90
35894;DHT22;21994;48.204;16.516;2023-09-07T08:43:05;26.70;95.50
35894;DHT22;21994;48.204;16.516;2023-09-07T08:45:37;27.00;95.10
35894;DHT22;21994;48.204;16.516;2023-09-07T08:48:08;27.40;95.50
35894;DHT22;21994;48.204;16.516;2023-09-07T08:50:35;27.70;94.70
35894;DHT22;21994;48.204;16.516;2023-09-07T08:53:03;28.10;93.60
35894;DHT22;21994;48.204;16.516;2023-09-07T08:55:29;28.40;94.50
35894;DHT22;21994;48.204;16.516;2023-09-07T08:57:55;28.70;94.50
35894;DHT22;21994;48.204;16.516;2023-09-07T09:00:22;29.10;93.40
35894;DHT22;21994;48.204;16.516;2023-09-07T09:02:48;29.00;93.20
35894;DHT22;21994;48.204;16.516;2023-09-07T09:05:15;28.90;94.00
35894;DHT22;21994;48.204;16.516;2023-09-07T09:07:43;29.00;92.60
35894;DHT22;21994;48.204;16.516;2023-09-07T09:10:09;29.10;91.40
35894;DHT22;21994;48.204;16.516;2023-09-07T09:12:35;29.20;91.40
35894;DHT22;21994;48.204;16.516;2023-09-07T09:15:01;29.50;91.30
35894;DHT22;21994;48.204;16.516;2023-09-07T09:17:38;30.00;90.30
35894;DHT22;21994;48.204;16.516;2023-09-07T09:20:04;30.00;91.50
35894;DHT22;21994;48.204;16.516;2023-09-07T09:22:35;30.30;91.50
35894;DHT22;21994;48.204;16.516;2023-09-07T09:25:04;30.40;89.50
35894;DHT22;21994;48.204;16.516;2023-09-07T09:27:30;30.90;90.00
35894;DHT22;21994;48.204;16.516;2023-09-07T09:29:56;30.90;89.20
35894;DHT22;21994;48.204;16.516;2023-09-07T09:32:22;31.40;87.50
35894;DHT22;21994;48.204;16.516;2023-09-07T09:34:48;31.30;85.90
35894;DHT22;21994;48.204;16.516;2023-09-07T09:37:14;31.50;88.20
35894;DHT22;21994;48.204;16.516;2023-09-07T09:39:41;31.80;86.00
35894;DHT22;21994;48.204;16.516;2023-09-07T09:42:07;32.30;83.80
35894;DHT22;21994;48.204;16.516;2023-09-07T09:44:33;32.30;80.40
35894;DHT22;21994;48.204;16.516;2023-09-07T09:47:02;32.50;82.60
35894;DHT22;21994;48.204;16.516;2023-09-07T09:49:29;33.10;79.70
35894;DHT22;21994;48.204;16.516;2023-09-07T09:51:55;32.80;80.30
35894;DHT22;21994;48.204;16.516;2023-09-07T09:54:22;32.70;79.00
35894;DHT22;21994;48.204;16.516;2023-09-07T09:56:49;33.30;79.60
35894;DHT22;21994;48.204;16.516;2023-09-07T09:59:14;33.90;74.50
35894;DHT22;21994;48.204;16.516;2023-09-07T10:01:43;33.40;77.10
35894;DHT22;21994;48.204;16.516;2023-09-07T10:04:10;33.20;74.40
35894;DHT22;21994;48.204;16.516;2023-09-07T10:06:37;33.50;72.00
35894;DHT22;21994;48.204;16.516;2023-09-07T10:09:04;33.40;72.60
35894;DHT22;21994;48.204;16.516;2023-09-07T10:11:32;33.50;70.30
35894;DHT22;21994;48.204;16.516;2023-09-07T10:13:59;32.80;72.40
35894;DHT22;21994;48.204;16.516;2023-09-07T10:16:27;33.10;69.60
35894;DHT22;21994;48.204;16.516;2023-09-07T10:18:54;33.70;69.40
35894;DHT22;21994;48.204;16.516;2023-09-07T10:21:23;33.80;71.80
35894;DHT22;21994;48.204;16.516;2023-09-07T10:23:51;33.60;68.30
35894;DHT22;21994;48.204;16.516;2023-09-07T10:26:17;33.10;68.40
35894;DHT22;21994;48.204;16.516;2023-09-07T10:28:46;32.80;71.30
35894;DHT22;21994;48.204;16.516;2023-09-07T10:31:19;32.80;69.40
35894;DHT22;21994;48.204;16.516;2023-09-07T10:33:45;33.50;68.70
35894;DHT22;21994;48.204;16.516;2023-09-07T10:36:27;33.90;68.20
35894;DHT22;21994;48.204;16.516;2023-09-07T10:38:54;34.10;66.20
35894;DHT22;21994;48.204;16.516;2023-09-07T10:41:21;33.60;66.50
35894;DHT22;21994;48.204;16.516;2023-09-07T10:43:47;33.80;68.40
35894;DHT22;21994;48.204;16.516;2023-09-07T10:46:14;34.20;66.90
35894;DHT22;21994;48.204;16.516;2023-09-07T10:48:40;34.70;67.50
35894;DHT22;21994;48.204;16.516;2023-09-07T10:51:06;34.80;65.40
35894;DHT22;21994;48.204;16.516;2023-09-07T10:53:32;34.30;63.90
35894;DHT22;21994;48.204;16.516;2023-09-07T10:55:59;34.30;65.20
35894;DHT22;21994;48.204;16.516;2023-09-07T10:58:29;34.60;64.70
35894;DHT22;21994;48.204;16.516;2023-09-07T11:00:56;34.10;67.40
35894;DHT22;21994;48.204;16.516;2023-09-07T11:03:27;34.20;64.10
35894;DHT22;21994;48.204;16.516;2023-09-07T11:06:04;34.40;63.10
35894;DHT22;21994;48.204;16.516;2023-09-07T11:08:36;34.20;65.50
35894;DHT22;21994;48.204;16.516;2023-09-07T11:11:02;33.20;66.60
35894;DHT22;21994;48.204;16.516;2023-09-07T11:13:28;33.20;67.50
35894;DHT22;21994;48.204;16.516;2023-09-07T11:15:55;33.10;65.40
35894;DHT22;21994;48.204;16.516;2023-09-07T11:18:22;32.70;65.80
35894;DHT22;21994;48.204;16.516;2023-09-07T11:20:48;32.20;66.90
35894;DHT22;21994;48.204;16.516;2023-09-07T11:23:15;31.80;69.20
35894;DHT22;21994;48.204;16.516;2023-09-07T11:25:42;31.40;68.70
35894;DHT22;21994;48.204;16.516;2023-09-07T11:28:08;31.00;70.70
35894;DHT22;21994;48.204;16.516;2023-09-07T11:30:34;30.60;73.30
35894;DHT22;21994;48.204;16.516;2023-09-07T11:33:01;30.30;72.00
35894;DHT22;21994;48.204;16.516;2023-09-07T11:35:30;30.20;72.40
35894;DHT22;21994;48.204;16.516;2023-09-07T11:37:58;30.20;76.90
35894;DHT22;21994;48.204;16.516;2023-09-07T11:40:25;30.10;71.60
35894;DHT22;21994;48.204;16.516;2023-09-07T11:42:50;30.20;71.50
35894;DHT22;21994;48.204;16.516;2023-09-07T11:45:16;30.10;70.00
35894;DHT22;21994;48.204;16.516;2023-09-07T11:47:43;30.10;72.30
35894;DHT22;21994;48.204;16.516;2023-09-07T11:50:09;29.90;71.30
35894;DHT22;21994;48.204;16.516;2023-09-07T11:52:45;30.10;73.80
35894;DHT22;21994;48.204;16.516;2023-09-07T11:55:13;30.00;72.50
35894;DHT22;21994;48.204;16.516;2023-09-07T11:57:39;30.10;74.10
35894;DHT22;21994;48.204;16.516;2023-09-07T12:00:06;30.30;71.50
35894;DHT22;21994;48.204;16.516;2023-09-07T12:02:39;30.50;72.80
35894;DHT22;21994;48.204;16.516;2023-09-07T12:05:05;30.50;71.90
35894;DHT22;21994;48.204;16.516;2023-09-07T12:07:37;30.60;71.90
35894;DHT22;21994;48.204;16.516;2023-09-07T12:10:03;30.60;71.90
35894;DHT22;21994;48.204;16.516;2023-09-07T12:12:30;30.70;71.70
35894;DHT22;21994;48.204;16.516;2023-09-07T12:14:55;30.80;71.60
35894;DHT22;21994;48.204;16.516;2023-09-07T12:17:22;30.70;70.90
35894;DHT22;21994;48.204;16.516;2023-09-07T12:19:50;30.50;72.40
35894;DHT22;21994;48.204;16.516;2023-09-07T12:22:16;30.50;71.20
35894;DHT22;21994;48.204;16.516;2023-09-07T12:24:42;30.70;72.60
35894;DHT22;21994;48.204;16.516;2023-09-07T12:27:08;30.70;72.60
35894;DHT22;21994;48.204;16.516;2023-09-07T12:29:34;30.80;72.10
35894;DHT22;21994;48.204;16.516;2023-09-07T12:32:00;30.90;72.80
35894;DHT22;21994;48.204;16.516;2023-09-07T12:34:26;30.90;73.90
35894;DHT22;21994;48.204;16.516;2023-09-07T12:36:51;30.70;74.00
35894;DHT22;21994;48.204;16.516;2023-09-07T12:39:17;30.80;72.40
35894;DHT22;21994;48.204;16.516;2023-09-07T12:41:43;30.90;71.90
35894;DHT22;21994;48.204;16.516;2023-09-07T12:44:09;30.90;72.60
35894;DHT22;21994;48.204;16.516;2023-09-07T12:46:34;31.00;71.20
35894;DHT22;21994;48.204;16.516;2023-09-07T12:49:02;31.00;73.50
35894;DHT22;21994;48.204;16.516;2023-09-07T12:51:29;31.00;72.10
35894;DHT22;21994;48.204;16.516;2023-09-07T12:53:56;30.90;73.30
35894;DHT22;21994;48.204;16.516;2023-09-07T12:56:21;31.00;74.20
35894;DHT22;21994;48.204;16.516;2023-09-07T12:58:47;31.20;72.50
35894;DHT22;21994;48.204;16.516;2023-09-07T13:01:14;31.60;73.90
35894;DHT22;21994;48.204;16.516;2023-09-07T13:03:41;31.90;72.70
35894;DHT22;21994;48.204;16.516;2023-09-07T13:06:07;31.70;76.00
35894;DHT22;21994;48.204;16.516;2023-09-07T13:08:33;31.90;72.60
35894;DHT22;21994;48.204;16.516;2023-09-07T13:10:59;31.70;73.30
35894;DHT22;21994;48.204;16.516;2023-09-07T13:13:25;31.70;76.10
35894;DHT22;21994;48.204;16.516;2023-09-07T13:15:57;31.80;73.30
35894;DHT22;21994;48.204;16.516;2023-09-07T13:18:23;31.90;74.20
35894;DHT22;21994;48.204;16.516;2023-09-07T13:20:50;32.00;70.00
35894;DHT22;21994;48.204;16.516;2023-09-07T13:23:17;31.90;73.90
35894;DHT22;21994;48.204;16.516;2023-09-07T13:25:43;31.90;72.70
35894;DHT22;21994;48.204;16.516;2023-09-07T13:28:09;31.90;74.20
35894;DHT22;21994;48.204;16.516;2023-09-07T13:30:34;31.80;71.80
35894;DHT22;21994;48.204;16.516;2023-09-07T13:33:00;31.70;74.20
35894;DHT22;21994;48.204;16.516;2023-09-07T13:35:26;31.90;72.40
35894;DHT22;21994;48.204;16.516;2023-09-07T13:37:52;31.90;68.80
35894;DHT22;21994;48.204;16.516;2023-09-07T13:40:18;32.00;69.70
35894;DHT22;21994;48.204;16.516;2023-09-07T13:42:45;32.00;68.90
35894;DHT22;21994;48.204;16.516;2023-09-07T13:45:13;32.00;72.50
35894;DHT22;21994;48.204;16.516;2023-09-07T13:47:39;32.00;71.50
35894;DHT22;21994;48.204;16.516;2023-09-07T13:50:05;31.90;72.20
35894;DHT22;21994;48.204;16.516;2023-09-07T13:52:31;31.90;70.80
35894;DHT22;21994;48.204;16.516;2023-09-07T13:54:57;31.90;72.00
35894;DHT22;21994;48.204;16.516;2023-09-07T13:57:23;32.00;70.80
35894;DHT22;21994;48.204;16.516;2023-09-07T13:59:48;32.10;70.10
35894;DHT22;21994;48.204;16.516;2023-09-07T14:02:14;32.10;70.40
35894;DHT22;21994;48.204;16.516;2023-09-07T14:04:40;32.10;71.30
35894;DHT22;21994;48.204;16.516;2023-09-07T14:07:06;31.70;70.50
35894;DHT22;21994;48.204;16.516;2023-09-07T14:09:32;31.90;73.20
35894;DHT22;21994;48.204;16.516;2023-09-07T14:12:08;32.10;70.60
35894;DHT22;21994;48.204;16.516;2023-09-07T14:14:33;32.30;68.40
35894;DHT22;21994;48.204;16.516;2023-09-07T14:16:59;32.40;69.30
35894;DHT22;21994;48.204;16.516;2023-09-07T14:19:26;32.40;72.50
35894;DHT22;21994;48.204;16.516;2023-09-07T14:21:56;32.50;71.00
35894;DHT22;21994;48.204;16.516;2023-09-07T14:24:23;32.40;70.40
35894;DHT22;21994;48.204;16.516;2023-09-07T14:26:49;32.40;70.40
35894;DHT22;21994;48.204;16.516;2023-09-07T14:29:15;32.40;69.70
35894;DHT22;21994;48.204;16.516;2023-09-07T14:31:40;32.50;69.80
35894;DHT22;21994;48.204;16.516;2023-09-07T14:34:08;32.70;71.90
35894;DHT22;21994;48.204;16.516;2023-09-07T14:36:44;32.60;69.20
35894;DHT22;21994;48.204;16.516;2023-09-07T14:39:10;32.70;71.40
35894;DHT22;21994;48.204;16.516;2023-09-07T14:41:35;32.60;68.90
35894;DHT22;21994;48.204;16.516;2023-09-07T14:44:01;32.60;70.30
35894;DHT22;21994;48.204;16.516;2023-09-07T14:46:27;32.40;71.00
35894;DHT22;21994;48.204;16.516;2023-09-07T14:48:53;32.20;69.40
35894;DHT22;21994;48.204;16.516;2023-09-07T14:51:19;32.00;71.30
35894;DHT22;21994;48.204;16.516;2023-09-07T14:53:44;31.80;69.80
35894;DHT22;21994;48.204;16.516;2023-09-07T14:56:11;31.90;71.10
35894;DHT22;21994;48.204;16.516;2023-09-07T14:58:37;31.80;72.10
35894;DHT22;21994;48.204;16.516;2023-09-07T15:01:03;31.60;70.40
35894;DHT22;21994;48.204;16.516;2023-09-07T15:03:29;31.70;70.00
35894;DHT22;21994;48.204;16.516;2023-09-07T15:05:55;31.80;70.70
35894;DHT22;21994;48.204;16.516;2023-09-07T15:08:21;31.70;71.60
35894;DHT22;21994;48.204;16.516;2023-09-07T15:10:47;31.70;71.20
35894;DHT22;21994;48.204;16.516;2023-09-07T15:13:13;31.80;71.30